Decoded Metar for KMVL (MORRISVILLE in VT, USA) (IATA:MVL) | Meteo·Mobile Aviation Weather
aviador You're here:

KMVL Decoded Metar

MORRISVILLE in VT, USA
Report Time2018-11-21 18:03:00
UTC Time2018-11-21 18:12:14
Flight Rules ifr IFR
Wind020° at 07 kt
W.Decomp.*RWY 01: 6.3 kt HW 3.1 kt RCW
W.Rank020° ranks 13
Current wind is above 020° avg. (5.3)
Visibility1609 m
Phenomena:Light Snow
Mist
Clouds:N/A
Expected CloudBase > 400 ft AGL from Temp-Dew spread
Ceiling1,200 ft
Temp-3°C (ISA -16)
Dew Point-4°C (93% RH)
AAT-8.0°C
QNH1007 hPa
Density Alt-984 ft
Elevation768 ft
Report Wrong Elevation
Raw Report
KMVL 211803Z AUTO 02007KT 1SM -SN BR VV012 M03/M04 A2974 RMK AO2
P0000 T10331039=

Extra information for KMVL:More info

Metar Taf Metar & Taf Last 4 Metars F.Rules Stats Wind Profile Meteogram Temp Stats Airport Information Weather charts Add Link Nearby VenuesMetar ALERT Operation Metar Decoded Social comments

AIRNAV info for KMVL